N95 KSAW-KEGE
Flight info
| Callsign | N95 |
|---|---|
| Flight time | 2h 34m |
| Altitude | 38000 |
| Route | SNARG Q138 WELOK/N0467F400 Q138 DKOTA Q88 CHUWY BKPCK VAAIL1 |
| Aircraft | CL60/M-SBDE1E2E3FGHIJ1J4J5J7M3RWXYZ/LB1V1D1 |
Departure
| Time | 2026-04-30 02:28 |
|---|---|
| Airport | Marquette/Sawyer International Airport (KSAW) |
Arrival
| Time | 2026-04-30 05:02 |
|---|---|
| Airport | Eagle County Regional Airport (KEGE) |
| Time | Latitude | Longitude | Altitude | Speed | Heading |
|---|---|---|---|---|---|
| 2026-04-30 01:38 | 46.33856 | -87.39043 | 1187 ft | 0 kts | 189° |
| 2026-04-30 02:17 | 46.33852 | -87.39044 | 1187 ft | 2 kts | 189° |
| 2026-04-30 02:17 | 46.33829 | -87.39073 | 1187 ft | 6 kts | 254° |
| 2026-04-30 02:18 | 46.33838 | -87.39127 | 1187 ft | 4 kts | 317° |
| 2026-04-30 02:18 | 46.33887 | -87.39126 | 1187 ft | 9 kts | 18° |
| 2026-04-30 02:18 | 46.33912 | -87.39116 | 1187 ft | 0 kts | 13° |
| 2026-04-30 02:19 | 46.33919 | -87.39114 | 1187 ft | 3 kts | 13° |
| 2026-04-30 02:19 | 46.33955 | -87.39110 | 1187 ft | 6 kts | 348° |
| 2026-04-30 02:19 | 46.33980 | -87.39170 | 1187 ft | 9 kts | 275° |
| 2026-04-30 02:19 | 46.33991 | -87.39275 | 1187 ft | 11 kts | 279° |
| 2026-04-30 02:20 | 46.34001 | -87.39359 | 1187 ft | 6 kts | 283° |
| 2026-04-30 02:20 | 46.34037 | -87.39406 | 1187 ft | 9 kts | 8° |
| 2026-04-30 02:20 | 46.34108 | -87.39387 | 1187 ft | 11 kts | 10° |
| 2026-04-30 02:20 | 46.34194 | -87.39366 | 1187 ft | 13 kts | 10° |
| 2026-04-30 02:21 | 46.34295 | -87.39342 | 1187 ft | 15 kts | 9° |
| 2026-04-30 02:21 | 46.34409 | -87.39316 | 1187 ft | 17 kts | 9° |
| 2026-04-30 02:21 | 46.34536 | -87.39288 | 1187 ft | 19 kts | 8° |
| 2026-04-30 02:21 | 46.34672 | -87.39256 | 1187 ft | 20 kts | 11° |
| 2026-04-30 02:22 | 46.34819 | -87.39218 | 1187 ft | 21 kts | 9° |
| 2026-04-30 02:22 | 46.34969 | -87.39185 | 1190 ft | 21 kts | 8° |
| 2026-04-30 02:22 | 46.35117 | -87.39146 | 1193 ft | 21 kts | 10° |
| 2026-04-30 02:22 | 46.35265 | -87.39111 | 1196 ft | 21 kts | 9° |
| 2026-04-30 02:23 | 46.35408 | -87.39077 | 1199 ft | 20 kts | 9° |
| 2026-04-30 02:23 | 46.35551 | -87.39041 | 1202 ft | 20 kts | 10° |
| 2026-04-30 02:23 | 46.35693 | -87.39011 | 1205 ft | 20 kts | 9° |
| 2026-04-30 02:23 | 46.35833 | -87.38976 | 1207 ft | 20 kts | 10° |
| 2026-04-30 02:24 | 46.35955 | -87.38947 | 1210 ft | 10 kts | 10° |
| 2026-04-30 02:24 | 46.36020 | -87.38931 | 1211 ft | 9 kts | 1° |
| 2026-04-30 02:24 | 46.36076 | -87.38984 | 1212 ft | 10 kts | 297° |
| 2026-04-30 02:24 | 46.36091 | -87.39099 | 1213 ft | 12 kts | 278° |
| 2026-04-30 02:25 | 46.36100 | -87.39195 | 1213 ft | 2 kts | 279° |
| 2026-04-30 02:25 | 46.36104 | -87.39230 | 1213 ft | 4 kts | 280° |
| 2026-04-30 02:25 | 46.36111 | -87.39291 | 1213 ft | 7 kts | 276° |
| 2026-04-30 02:25 | 46.36119 | -87.39330 | 1213 ft | 3 kts | 327° |
| 2026-04-30 02:26 | 46.36143 | -87.39334 | 1214 ft | 2 kts | 349° |
| 2026-04-30 02:26 | 46.36147 | -87.39346 | 1214 ft | 1 kts | 245° |
| 2026-04-30 02:26 | 46.36140 | -87.39349 | 1213 ft | 0 kts | 186° |
| 2026-04-30 02:27 | 46.36114 | -87.39354 | 1213 ft | 30 kts | 187° |
| 2026-04-30 02:27 | 46.35520 | -87.39495 | 1198 ft | 134 kts | 189° |
| 2026-04-30 02:27 | 46.34414 | -87.39740 | 1505 ft | 180 kts | 189° |
| 2026-04-30 02:28 | 46.33105 | -87.39986 | 2324 ft | 202 kts | 189° |
| 2026-04-30 02:28 | 46.31671 | -87.40548 | 2976 ft | 223 kts | 202° |
| 2026-04-30 02:28 | 46.30290 | -87.41522 | 3470 ft | 219 kts | 213° |
| 2026-04-30 02:28 | 46.29180 | -87.43038 | 4239 ft | 229 kts | 248° |
| 2026-04-30 02:29 | 46.28724 | -87.45131 | 5569 ft | 230 kts | 261° |
| 2026-04-30 02:29 | 46.28384 | -87.47498 | 6546 ft | 254 kts | 262° |
| 2026-04-30 02:29 | 46.28054 | -87.49998 | 7846 ft | 263 kts | 262° |
| 2026-04-30 02:29 | 46.27736 | -87.52603 | 9239 ft | 268 kts | 262° |
| 2026-04-30 02:30 | 46.27446 | -87.55173 | 10687 ft | 269 kts | 262° |
| 2026-04-30 02:30 | 46.27169 | -87.57823 | 11970 ft | 273 kts | 262° |
| 2026-04-30 02:30 | 46.26900 | -87.60535 | 13174 ft | 278 kts | 262° |
| 2026-04-30 02:30 | 46.26635 | -87.63295 | 14290 ft | 283 kts | 262° |
| 2026-04-30 02:31 | 46.26366 | -87.66093 | 15383 ft | 287 kts | 262° |
| 2026-04-30 02:31 | 46.26108 | -87.68919 | 16390 ft | 292 kts | 264° |
| 2026-04-30 02:31 | 46.25905 | -87.71880 | 17386 ft | 297 kts | 265° |
| 2026-04-30 02:31 | 46.25704 | -87.74840 | 18264 ft | 303 kts | 265° |
| 2026-04-30 02:32 | 46.25499 | -87.77844 | 19222 ft | 306 kts | 265° |
| 2026-04-30 02:32 | 46.25287 | -87.80926 | 20151 ft | 310 kts | 265° |
| 2026-04-30 02:32 | 46.25073 | -87.84018 | 21040 ft | 314 kts | 265° |
| 2026-04-30 02:32 | 46.24853 | -87.87181 | 21880 ft | 318 kts | 265° |
| 2026-04-30 02:33 | 46.24634 | -87.90317 | 22697 ft | 321 kts | 265° |
| 2026-04-30 02:33 | 46.24409 | -87.93531 | 23457 ft | 326 kts | 265° |
| 2026-04-30 02:33 | 46.24173 | -87.96866 | 24223 ft | 331 kts | 265° |
| 2026-04-30 02:33 | 46.23938 | -88.00179 | 24922 ft | 335 kts | 265° |
| 2026-04-30 02:34 | 46.23700 | -88.03516 | 25609 ft | 336 kts | 266° |
| 2026-04-30 02:34 | 46.23460 | -88.06873 | 26250 ft | 338 kts | 266° |
| 2026-04-30 02:34 | 46.23216 | -88.10262 | 26749 ft | 343 kts | 265° |
| 2026-04-30 02:34 | 46.22968 | -88.13695 | 27278 ft | 345 kts | 266° |
| 2026-04-30 02:35 | 46.22717 | -88.17147 | 27767 ft | 348 kts | 266° |
| 2026-04-30 02:35 | 46.22464 | -88.20625 | 28235 ft | 351 kts | 266° |
| 2026-04-30 02:35 | 46.22208 | -88.24112 | 28684 ft | 354 kts | 266° |
| 2026-04-30 02:35 | 46.21948 | -88.27647 | 29127 ft | 356 kts | 266° |
| 2026-04-30 02:36 | 46.21684 | -88.31212 | 29559 ft | 358 kts | 266° |
| 2026-04-30 02:36 | 46.21419 | -88.34780 | 29964 ft | 361 kts | 266° |
| 2026-04-30 02:36 | 46.21149 | -88.38392 | 30357 ft | 365 kts | 266° |
| 2026-04-30 02:36 | 46.20875 | -88.42051 | 30748 ft | 368 kts | 266° |
| 2026-04-30 02:37 | 46.20596 | -88.45756 | 31111 ft | 372 kts | 266° |
| 2026-04-30 02:37 | 46.20318 | -88.49442 | 31460 ft | 375 kts | 266° |
| 2026-04-30 02:37 | 46.20034 | -88.53175 | 31801 ft | 378 kts | 266° |
| 2026-04-30 02:37 | 46.19747 | -88.56930 | 32092 ft | 382 kts | 266° |
| 2026-04-30 02:38 | 46.19453 | -88.60773 | 32415 ft | 384 kts | 266° |
| 2026-04-30 02:38 | 46.19161 | -88.64565 | 32703 ft | 387 kts | 266° |
| 2026-04-30 02:38 | 46.18862 | -88.68430 | 32970 ft | 390 kts | 265° |
| 2026-04-30 02:38 | 46.18559 | -88.72328 | 33239 ft | 393 kts | 265° |
| 2026-04-30 02:39 | 46.18251 | -88.76277 | 33531 ft | 395 kts | 265° |
| 2026-04-30 02:39 | 46.17941 | -88.80225 | 33816 ft | 397 kts | 265° |
| 2026-04-30 02:39 | 46.17632 | -88.84145 | 34130 ft | 398 kts | 265° |
| 2026-04-30 02:39 | 46.17316 | -88.88133 | 34486 ft | 397 kts | 265° |
| 2026-04-30 02:40 | 46.17004 | -88.92063 | 34814 ft | 397 kts | 265° |
| 2026-04-30 02:40 | 46.16687 | -88.96027 | 35141 ft | 397 kts | 265° |
| 2026-04-30 02:40 | 46.16373 | -88.99941 | 35423 ft | 397 kts | 265° |
| 2026-04-30 02:40 | 46.16053 | -89.03920 | 35724 ft | 396 kts | 265° |
| 2026-04-30 02:41 | 46.15733 | -89.07875 | 35968 ft | 397 kts | 264° |
| 2026-04-30 02:41 | 46.15412 | -89.11828 | 36221 ft | 398 kts | 265° |
| 2026-04-30 02:41 | 46.15092 | -89.15745 | 36451 ft | 398 kts | 264° |
| 2026-04-30 02:41 | 46.14766 | -89.19720 | 36662 ft | 399 kts | 264° |
| 2026-04-30 02:42 | 46.14437 | -89.23723 | 36865 ft | 400 kts | 264° |
| 2026-04-30 02:42 | 46.14108 | -89.27703 | 37071 ft | 401 kts | 264° |
| 2026-04-30 02:42 | 46.13777 | -89.31683 | 37265 ft | 401 kts | 264° |
| 2026-04-30 02:42 | 46.13449 | -89.35622 | 37483 ft | 401 kts | 264° |
| 2026-04-30 02:43 | 46.13112 | -89.39646 | 37702 ft | 401 kts | 264° |
| 2026-04-30 02:43 | 46.12780 | -89.43597 | 37924 ft | 401 kts | 264° |
| 2026-04-30 02:43 | 46.12443 | -89.47578 | 38072 ft | 403 kts | 264° |
| 2026-04-30 02:44 | 46.11752 | -89.55721 | 38055 ft | 414 kts | 264° |
| 2026-04-30 02:44 | 46.11041 | -89.64024 | 38049 ft | 423 kts | 264° |
| 2026-04-30 02:45 | 46.10307 | -89.72510 | 38047 ft | 432 kts | 264° |
| 2026-04-30 02:45 | 46.09552 | -89.81159 | 38054 ft | 439 kts | 264° |
| 2026-04-30 02:46 | 46.08779 | -89.89932 | 38053 ft | 445 kts | 264° |
| 2026-04-30 02:46 | 46.07988 | -89.98839 | 38047 ft | 450 kts | 264° |
| 2026-04-30 02:47 | 46.07187 | -90.07770 | 38050 ft | 451 kts | 264° |
| 2026-04-30 02:47 | 46.06381 | -90.16665 | 38051 ft | 449 kts | 264° |
| 2026-04-30 02:48 | 46.05567 | -90.25577 | 38056 ft | 448 kts | 264° |
| 2026-04-30 02:48 | 46.04753 | -90.34418 | 38060 ft | 447 kts | 264° |
| 2026-04-30 02:49 | 46.03935 | -90.43219 | 38066 ft | 447 kts | 264° |
| 2026-04-30 02:49 | 46.03104 | -90.52093 | 38069 ft | 448 kts | 264° |
| 2026-04-30 02:50 | 46.02268 | -90.60942 | 38072 ft | 448 kts | 264° |
| 2026-04-30 02:50 | 46.01423 | -90.69812 | 38078 ft | 448 kts | 264° |
| 2026-04-30 02:51 | 46.00573 | -90.78657 | 38079 ft | 448 kts | 263° |
| 2026-04-30 02:51 | 45.99714 | -90.87528 | 38078 ft | 447 kts | 263° |
| 2026-04-30 02:52 | 45.98851 | -90.96352 | 38080 ft | 447 kts | 263° |
| 2026-04-30 02:52 | 45.97986 | -91.05179 | 38087 ft | 446 kts | 264° |
| 2026-04-30 02:53 | 45.97150 | -91.14031 | 38089 ft | 446 kts | 264° |
| 2026-04-30 02:53 | 45.96481 | -91.21077 | 38096 ft | 446 kts | 264° |
| 2026-04-30 02:54 | 45.95873 | -91.27432 | 38091 ft | 446 kts | 264° |
| 2026-04-30 02:54 | 45.95020 | -91.36279 | 38102 ft | 446 kts | 264° |
| 2026-04-30 02:55 | 45.94165 | -91.45079 | 38106 ft | 446 kts | 264° |
| 2026-04-30 02:55 | 45.93306 | -91.53846 | 38105 ft | 446 kts | 264° |
| 2026-04-30 02:56 | 45.92436 | -91.62643 | 38099 ft | 446 kts | 264° |
| 2026-04-30 02:56 | 45.91577 | -91.71416 | 38101 ft | 445 kts | 264° |
| 2026-04-30 02:57 | 45.90747 | -91.80190 | 38103 ft | 444 kts | 264° |
| 2026-04-30 02:57 | 45.89912 | -91.88947 | 38100 ft | 444 kts | 264° |
| 2026-04-30 02:58 | 45.89067 | -91.97731 | 38106 ft | 444 kts | 264° |
| 2026-04-30 02:58 | 45.88216 | -92.06500 | 38105 ft | 443 kts | 264° |
| 2026-04-30 02:59 | 45.87366 | -92.15196 | 38109 ft | 443 kts | 264° |
| 2026-04-30 02:59 | 45.86617 | -92.23971 | 38110 ft | 443 kts | 266° |
| 2026-04-30 03:00 | 45.85931 | -92.32738 | 38110 ft | 443 kts | 266° |
| 2026-04-30 03:00 | 45.85237 | -92.41530 | 38113 ft | 444 kts | 266° |
| 2026-04-30 03:01 | 45.84539 | -92.50274 | 38113 ft | 444 kts | 266° |
| 2026-04-30 03:01 | 45.83828 | -92.59086 | 38118 ft | 444 kts | 266° |
| 2026-04-30 03:02 | 45.83114 | -92.67845 | 38120 ft | 445 kts | 265° |
| 2026-04-30 03:02 | 45.82391 | -92.76637 | 38121 ft | 445 kts | 265° |
| 2026-04-30 03:03 | 45.81662 | -92.85410 | 38121 ft | 444 kts | 265° |
| 2026-04-30 03:03 | 45.80557 | -92.98560 | 38123 ft | 443 kts | 265° |
| 2026-04-30 03:04 | 45.79813 | -93.07310 | 38124 ft | 442 kts | 265° |
| 2026-04-30 03:04 | 45.79062 | -93.16061 | 38127 ft | 442 kts | 265° |
| 2026-04-30 03:05 | 45.78308 | -93.24766 | 38129 ft | 442 kts | 265° |
| 2026-04-30 03:05 | 45.77549 | -93.33463 | 38136 ft | 442 kts | 265° |
| 2026-04-30 03:06 | 45.76778 | -93.42194 | 38134 ft | 442 kts | 265° |
| 2026-04-30 03:06 | 45.76003 | -93.50915 | 38127 ft | 441 kts | 265° |
| 2026-04-30 03:07 | 45.75221 | -93.59623 | 38120 ft | 441 kts | 265° |
| 2026-04-30 03:07 | 45.74432 | -93.68340 | 38113 ft | 441 kts | 265° |
| 2026-04-30 03:08 | 45.73639 | -93.77026 | 38113 ft | 442 kts | 265° |
| 2026-04-30 03:08 | 45.72834 | -93.85763 | 38115 ft | 441 kts | 265° |
| 2026-04-30 03:09 | 45.72031 | -93.94405 | 38116 ft | 441 kts | 265° |
| 2026-04-30 03:09 | 45.71218 | -94.03094 | 38121 ft | 440 kts | 265° |
| 2026-04-30 03:10 | 45.70398 | -94.11768 | 38118 ft | 440 kts | 265° |
| 2026-04-30 03:10 | 45.69577 | -94.20397 | 38120 ft | 440 kts | 265° |
| 2026-04-30 03:11 | 45.68783 | -94.29072 | 38124 ft | 439 kts | 266° |
| 2026-04-30 03:11 | 45.68091 | -94.37737 | 38119 ft | 439 kts | 266° |
| 2026-04-30 03:12 | 45.67392 | -94.46386 | 38118 ft | 439 kts | 266° |
| 2026-04-30 03:12 | 45.66685 | -94.55035 | 38116 ft | 439 kts | 266° |
| 2026-04-30 03:13 | 45.65969 | -94.63705 | 38116 ft | 438 kts | 266° |
| 2026-04-30 03:13 | 45.65253 | -94.72298 | 38117 ft | 438 kts | 266° |
| 2026-04-30 03:14 | 45.64525 | -94.80943 | 38116 ft | 438 kts | 266° |
| 2026-04-30 03:14 | 45.63790 | -94.89597 | 38120 ft | 437 kts | 266° |
| 2026-04-30 03:15 | 45.63051 | -94.98219 | 38126 ft | 438 kts | 266° |
| 2026-04-30 03:15 | 45.62306 | -95.06834 | 38129 ft | 438 kts | 266° |
| 2026-04-30 03:16 | 45.61555 | -95.15427 | 38126 ft | 438 kts | 266° |
| 2026-04-30 03:16 | 45.60794 | -95.24063 | 38119 ft | 437 kts | 266° |
| 2026-04-30 03:17 | 45.60030 | -95.32663 | 38133 ft | 436 kts | 266° |
| 2026-04-30 03:17 | 45.59262 | -95.41219 | 38119 ft | 436 kts | 266° |
| 2026-04-30 03:18 | 45.58482 | -95.49848 | 38126 ft | 436 kts | 266° |
| 2026-04-30 03:18 | 45.57703 | -95.58389 | 38129 ft | 436 kts | 265° |
| 2026-04-30 03:19 | 45.56914 | -95.66972 | 38131 ft | 436 kts | 265° |
| 2026-04-30 03:19 | 45.56121 | -95.75513 | 38138 ft | 436 kts | 265° |
| 2026-04-30 03:20 | 45.55320 | -95.84089 | 38130 ft | 436 kts | 265° |
| 2026-04-30 03:20 | 45.54514 | -95.92627 | 38125 ft | 436 kts | 265° |
| 2026-04-30 03:21 | 45.53706 | -96.01135 | 38131 ft | 435 kts | 265° |
| 2026-04-30 03:21 | 45.52886 | -96.09685 | 38131 ft | 434 kts | 265° |
| 2026-04-30 03:22 | 45.52061 | -96.18224 | 38133 ft | 434 kts | 265° |
| 2026-04-30 03:22 | 45.51231 | -96.26751 | 38129 ft | 434 kts | 265° |
| 2026-04-30 03:23 | 45.50397 | -96.35239 | 38132 ft | 434 kts | 265° |
| 2026-04-30 03:23 | 45.49554 | -96.43763 | 38137 ft | 434 kts | 265° |
| 2026-04-30 03:24 | 45.48706 | -96.52271 | 38143 ft | 433 kts | 265° |
| 2026-04-30 03:24 | 45.47855 | -96.60737 | 38138 ft | 433 kts | 265° |
| 2026-04-30 03:25 | 45.46994 | -96.69244 | 38142 ft | 433 kts | 264° |
| 2026-04-30 03:25 | 45.46132 | -96.77690 | 38141 ft | 433 kts | 265° |
| 2026-04-30 03:26 | 45.45264 | -96.86134 | 38134 ft | 433 kts | 265° |
| 2026-04-30 03:26 | 45.44388 | -96.94602 | 38135 ft | 433 kts | 264° |
| 2026-04-30 03:27 | 45.43502 | -97.03099 | 38131 ft | 433 kts | 264° |
| 2026-04-30 03:27 | 45.42612 | -97.11567 | 38121 ft | 433 kts | 265° |
| 2026-04-30 03:28 | 45.41714 | -97.20045 | 38114 ft | 432 kts | 264° |
| 2026-04-30 03:28 | 45.40821 | -97.28419 | 38117 ft | 432 kts | 265° |
| 2026-04-30 03:29 | 45.39914 | -97.36864 | 38117 ft | 431 kts | 265° |
| 2026-04-30 03:29 | 45.39005 | -97.45270 | 38118 ft | 430 kts | 264° |
| 2026-04-30 03:30 | 45.38065 | -97.53715 | 38121 ft | 431 kts | 263° |
| 2026-04-30 03:30 | 45.36227 | -97.61850 | 38117 ft | 438 kts | 250° |
| 2026-04-30 03:31 | 45.32972 | -97.69193 | 38116 ft | 446 kts | 235° |
| 2026-04-30 03:31 | 45.28896 | -97.75857 | 38112 ft | 447 kts | 233° |
| 2026-04-30 03:32 | 45.24814 | -97.82482 | 38116 ft | 447 kts | 234° |
| 2026-04-30 03:32 | 45.20707 | -97.89135 | 38120 ft | 446 kts | 234° |
| 2026-04-30 03:33 | 45.16642 | -97.95705 | 38119 ft | 446 kts | 234° |
| 2026-04-30 03:33 | 45.12534 | -98.02331 | 38121 ft | 445 kts | 234° |
| 2026-04-30 03:34 | 45.08464 | -98.08878 | 38125 ft | 445 kts | 234° |
| 2026-04-30 03:34 | 45.04370 | -98.15453 | 38122 ft | 446 kts | 234° |
| 2026-04-30 03:35 | 45.00276 | -98.22010 | 38123 ft | 446 kts | 234° |
| 2026-04-30 03:35 | 44.96175 | -98.28565 | 38128 ft | 445 kts | 234° |
| 2026-04-30 03:36 | 44.92104 | -98.35055 | 38127 ft | 444 kts | 233° |
| 2026-04-30 03:36 | 44.88013 | -98.41563 | 38128 ft | 443 kts | 234° |
| 2026-04-30 03:37 | 44.83919 | -98.48060 | 38130 ft | 443 kts | 234° |
| 2026-04-30 03:37 | 44.79834 | -98.54530 | 38128 ft | 442 kts | 234° |
| 2026-04-30 03:38 | 44.75748 | -98.60986 | 38134 ft | 442 kts | 234° |
| 2026-04-30 03:38 | 44.71641 | -98.67460 | 38131 ft | 442 kts | 233° |
| 2026-04-30 03:39 | 44.67553 | -98.73888 | 38133 ft | 442 kts | 233° |
| 2026-04-30 03:39 | 44.63473 | -98.80291 | 38129 ft | 442 kts | 233° |
| 2026-04-30 03:40 | 44.59362 | -98.86726 | 38130 ft | 441 kts | 233° |
| 2026-04-30 03:40 | 44.55296 | -98.93079 | 38128 ft | 441 kts | 233° |
| 2026-04-30 03:41 | 44.51177 | -98.99497 | 38129 ft | 441 kts | 233° |
| 2026-04-30 03:41 | 44.47066 | -99.05889 | 38129 ft | 441 kts | 233° |
| 2026-04-30 03:42 | 44.42960 | -99.12258 | 38124 ft | 441 kts | 233° |
| 2026-04-30 03:42 | 44.38855 | -99.18613 | 38120 ft | 440 kts | 233° |
| 2026-04-30 03:43 | 44.34755 | -99.24944 | 38119 ft | 440 kts | 233° |
| 2026-04-30 03:43 | 44.30647 | -99.31273 | 38118 ft | 440 kts | 233° |
| 2026-04-30 03:44 | 44.26537 | -99.37592 | 38109 ft | 440 kts | 233° |
| 2026-04-30 03:44 | 44.22414 | -99.43913 | 38119 ft | 440 kts | 233° |
| 2026-04-30 03:45 | 44.18290 | -99.50188 | 38111 ft | 440 kts | 233° |
| 2026-04-30 03:45 | 44.14170 | -99.56442 | 38112 ft | 439 kts | 233° |
| 2026-04-30 03:46 | 44.10038 | -99.62703 | 38114 ft | 439 kts | 233° |
| 2026-04-30 03:46 | 44.05901 | -99.68954 | 38111 ft | 438 kts | 233° |
| 2026-04-30 03:47 | 44.01788 | -99.75157 | 38108 ft | 437 kts | 233° |
| 2026-04-30 03:47 | 43.97660 | -99.81370 | 38109 ft | 438 kts | 233° |
| 2026-04-30 03:48 | 43.93553 | -99.87537 | 38105 ft | 437 kts | 233° |
| 2026-04-30 03:48 | 43.89433 | -99.93710 | 38101 ft | 438 kts | 232° |
| 2026-04-30 03:49 | 43.85229 | -99.99882 | 38103 ft | 440 kts | 230° |
| 2026-04-30 03:49 | 43.80779 | -100.05652 | 38103 ft | 440 kts | 229° |
| 2026-04-30 03:50 | 43.76296 | -100.11442 | 38103 ft | 440 kts | 229° |
| 2026-04-30 03:50 | 43.71845 | -100.17182 | 38104 ft | 440 kts | 229° |
| 2026-04-30 03:51 | 43.67376 | -100.22935 | 38107 ft | 439 kts | 229° |
| 2026-04-30 03:51 | 43.62896 | -100.28690 | 38107 ft | 439 kts | 229° |
| 2026-04-30 03:52 | 43.58434 | -100.34412 | 38110 ft | 438 kts | 229° |
| 2026-04-30 03:52 | 43.53992 | -100.40096 | 38110 ft | 437 kts | 229° |
| 2026-04-30 03:53 | 43.49523 | -100.45805 | 38106 ft | 436 kts | 229° |
| 2026-04-30 03:53 | 43.45085 | -100.51460 | 38111 ft | 436 kts | 229° |
| 2026-04-30 03:54 | 43.40651 | -100.57103 | 38107 ft | 437 kts | 229° |
| 2026-04-30 03:54 | 43.36190 | -100.62766 | 38105 ft | 437 kts | 229° |
| 2026-04-30 03:55 | 43.31716 | -100.68432 | 38107 ft | 436 kts | 229° |
| 2026-04-30 03:55 | 43.27285 | -100.74034 | 38111 ft | 436 kts | 229° |
| 2026-04-30 03:56 | 43.22819 | -100.79666 | 38117 ft | 435 kts | 228° |
| 2026-04-30 03:56 | 43.18380 | -100.85254 | 38116 ft | 434 kts | 229° |
| 2026-04-30 03:57 | 43.13945 | -100.90824 | 38116 ft | 434 kts | 229° |
| 2026-04-30 03:57 | 43.09489 | -100.96411 | 38119 ft | 434 kts | 229° |
| 2026-04-30 03:58 | 43.05042 | -101.01975 | 38117 ft | 434 kts | 229° |
| 2026-04-30 03:58 | 43.00587 | -101.07536 | 38122 ft | 433 kts | 229° |
| 2026-04-30 03:59 | 42.96149 | -101.13065 | 38116 ft | 432 kts | 228° |
| 2026-04-30 03:59 | 42.91719 | -101.18572 | 38122 ft | 432 kts | 228° |
| 2026-04-30 04:00 | 42.87282 | -101.24078 | 38123 ft | 432 kts | 229° |
| 2026-04-30 04:00 | 42.82835 | -101.29586 | 38126 ft | 432 kts | 229° |
| 2026-04-30 04:01 | 42.78404 | -101.35062 | 38128 ft | 432 kts | 228° |
| 2026-04-30 04:01 | 42.73935 | -101.40575 | 38128 ft | 432 kts | 228° |
| 2026-04-30 04:02 | 42.69508 | -101.46021 | 38140 ft | 430 kts | 228° |
| 2026-04-30 04:02 | 42.65080 | -101.51461 | 38129 ft | 431 kts | 228° |
| 2026-04-30 04:03 | 42.60632 | -101.56913 | 38135 ft | 431 kts | 228° |
| 2026-04-30 04:03 | 42.56167 | -101.62376 | 38135 ft | 430 kts | 228° |
| 2026-04-30 04:04 | 42.51727 | -101.67797 | 38139 ft | 430 kts | 227° |
| 2026-04-30 04:04 | 42.47291 | -101.73202 | 38139 ft | 430 kts | 227° |
| 2026-04-30 04:05 | 42.42836 | -101.78620 | 38144 ft | 430 kts | 227° |
| 2026-04-30 04:05 | 42.38392 | -101.84015 | 38145 ft | 430 kts | 227° |
| 2026-04-30 04:06 | 42.33950 | -101.89394 | 38146 ft | 429 kts | 227° |
| 2026-04-30 04:06 | 42.29513 | -101.94759 | 38147 ft | 428 kts | 227° |
| 2026-04-30 04:07 | 42.25076 | -102.00111 | 38148 ft | 427 kts | 227° |
| 2026-04-30 04:08 | 42.18463 | -102.08071 | 38151 ft | 426 kts | 227° |
| 2026-04-30 04:08 | 42.14019 | -102.13408 | 38151 ft | 426 kts | 227° |
| 2026-04-30 04:09 | 42.09617 | -102.18682 | 38152 ft | 426 kts | 227° |
| 2026-04-30 04:09 | 42.05182 | -102.23987 | 38152 ft | 425 kts | 227° |
| 2026-04-30 04:10 | 42.00766 | -102.29257 | 38154 ft | 425 kts | 227° |
| 2026-04-30 04:10 | 41.96341 | -102.34528 | 38153 ft | 423 kts | 227° |
| 2026-04-30 04:11 | 41.91968 | -102.39727 | 38154 ft | 422 kts | 227° |
| 2026-04-30 04:11 | 41.87559 | -102.44961 | 38154 ft | 422 kts | 228° |
| 2026-04-30 04:12 | 41.83175 | -102.50153 | 38153 ft | 422 kts | 228° |
| 2026-04-30 04:12 | 41.78769 | -102.55363 | 38156 ft | 421 kts | 227° |
| 2026-04-30 04:13 | 41.74375 | -102.60548 | 38154 ft | 421 kts | 228° |
| 2026-04-30 04:13 | 41.69982 | -102.65720 | 38156 ft | 420 kts | 227° |
| 2026-04-30 04:14 | 41.65591 | -102.70882 | 38155 ft | 419 kts | 227° |
| 2026-04-30 04:14 | 41.61217 | -102.76015 | 38157 ft | 419 kts | 227° |
| 2026-04-30 04:15 | 41.56856 | -102.81121 | 38218 ft | 418 kts | 227° |
| 2026-04-30 04:15 | 41.52263 | -102.85976 | 38155 ft | 425 kts | 219° |
| 2026-04-30 04:16 | 41.46816 | -102.89360 | 38162 ft | 438 kts | 205° |
| 2026-04-30 04:16 | 41.40901 | -102.91566 | 38159 ft | 441 kts | 203° |
| 2026-04-30 04:17 | 41.34998 | -102.93735 | 38164 ft | 440 kts | 203° |
| 2026-04-30 04:17 | 41.29106 | -102.95897 | 38167 ft | 439 kts | 204° |
| 2026-04-30 04:18 | 41.23235 | -102.98049 | 38162 ft | 438 kts | 204° |
| 2026-04-30 04:18 | 41.17374 | -103.00195 | 38147 ft | 438 kts | 204° |
| 2026-04-30 04:19 | 41.11512 | -103.02337 | 38146 ft | 437 kts | 204° |
| 2026-04-30 04:19 | 41.05636 | -103.04481 | 38159 ft | 436 kts | 204° |
| 2026-04-30 04:20 | 40.99800 | -103.06607 | 38165 ft | 435 kts | 204° |
| 2026-04-30 04:20 | 40.93941 | -103.08739 | 38175 ft | 435 kts | 204° |
| 2026-04-30 04:21 | 40.88108 | -103.10857 | 38163 ft | 436 kts | 204° |
| 2026-04-30 04:21 | 40.82279 | -103.12970 | 38158 ft | 435 kts | 204° |
| 2026-04-30 04:22 | 40.76444 | -103.15081 | 38161 ft | 434 kts | 204° |
| 2026-04-30 04:22 | 40.70599 | -103.17193 | 38148 ft | 434 kts | 204° |
| 2026-04-30 04:23 | 40.64775 | -103.19292 | 38124 ft | 434 kts | 205° |
| 2026-04-30 04:23 | 40.58969 | -103.21382 | 38121 ft | 433 kts | 205° |
| 2026-04-30 04:24 | 40.53144 | -103.23474 | 38145 ft | 433 kts | 205° |
| 2026-04-30 04:24 | 40.47355 | -103.25550 | 38143 ft | 432 kts | 205° |
| 2026-04-30 04:25 | 40.41566 | -103.27759 | 38164 ft | 425 kts | 210° |
| 2026-04-30 04:25 | 40.36486 | -103.31293 | 38164 ft | 408 kts | 224° |
| 2026-04-30 04:26 | 40.32245 | -103.36070 | 38161 ft | 401 kts | 230° |
| 2026-04-30 04:26 | 40.28121 | -103.40983 | 38166 ft | 400 kts | 230° |
| 2026-04-30 04:27 | 40.24009 | -103.45873 | 38164 ft | 400 kts | 230° |
| 2026-04-30 04:27 | 40.19874 | -103.50784 | 38160 ft | 399 kts | 230° |
| 2026-04-30 04:28 | 40.15794 | -103.55621 | 38160 ft | 398 kts | 230° |
| 2026-04-30 04:28 | 40.11731 | -103.60542 | 38163 ft | 394 kts | 233° |
| 2026-04-30 04:29 | 40.08634 | -103.66254 | 38161 ft | 382 kts | 246° |
| 2026-04-30 04:29 | 40.06916 | -103.72747 | 38160 ft | 376 kts | 261° |
| 2026-04-30 04:30 | 40.06464 | -103.79497 | 38158 ft | 376 kts | 267° |
| 2026-04-30 04:30 | 40.06223 | -103.86344 | 38160 ft | 375 kts | 267° |
| 2026-04-30 04:31 | 40.05981 | -103.93093 | 38161 ft | 375 kts | 266° |
| 2026-04-30 04:31 | 40.05732 | -103.99889 | 38160 ft | 376 kts | 266° |
| 2026-04-30 04:32 | 40.05478 | -104.06730 | 38168 ft | 376 kts | 267° |
| 2026-04-30 04:32 | 40.05220 | -104.13541 | 38162 ft | 376 kts | 267° |
| 2026-04-30 04:33 | 40.04961 | -104.20316 | 38165 ft | 376 kts | 266° |
| 2026-04-30 04:33 | 40.04695 | -104.27149 | 38168 ft | 376 kts | 266° |
| 2026-04-30 04:34 | 40.04426 | -104.33952 | 38168 ft | 376 kts | 266° |
| 2026-04-30 04:34 | 40.04154 | -104.40723 | 38175 ft | 376 kts | 266° |
| 2026-04-30 04:35 | 40.03876 | -104.47568 | 38172 ft | 377 kts | 266° |
| 2026-04-30 04:35 | 40.03595 | -104.54361 | 38182 ft | 377 kts | 266° |
| 2026-04-30 04:36 | 40.03417 | -104.61221 | 38183 ft | 378 kts | 272° |
| 2026-04-30 04:36 | 40.04414 | -104.67972 | 38177 ft | 382 kts | 280° |
| 2026-04-30 04:36 | 40.05024 | -104.71310 | 37866 ft | 378 kts | 280° |
| 2026-04-30 04:37 | 40.05633 | -104.74651 | 37415 ft | 372 kts | 279° |
| 2026-04-30 04:37 | 40.06223 | -104.77901 | 36938 ft | 368 kts | 280° |
| 2026-04-30 04:37 | 40.06806 | -104.81117 | 36460 ft | 364 kts | 280° |
| 2026-04-30 04:37 | 40.07378 | -104.84277 | 35983 ft | 360 kts | 279° |
| 2026-04-30 04:38 | 40.07947 | -104.87428 | 35516 ft | 357 kts | 280° |
| 2026-04-30 04:38 | 40.08517 | -104.90591 | 35039 ft | 353 kts | 280° |
| 2026-04-30 04:38 | 40.09074 | -104.93686 | 34586 ft | 350 kts | 279° |
| 2026-04-30 04:38 | 40.09625 | -104.96758 | 34109 ft | 347 kts | 279° |
| 2026-04-30 04:39 | 40.10170 | -104.99796 | 33698 ft | 344 kts | 279° |
| 2026-04-30 04:39 | 40.10709 | -105.02811 | 33203 ft | 343 kts | 279° |
| 2026-04-30 04:39 | 40.11249 | -105.05836 | 32751 ft | 340 kts | 280° |
| 2026-04-30 04:39 | 40.11784 | -105.08838 | 32324 ft | 339 kts | 280° |
| 2026-04-30 04:40 | 40.12313 | -105.11812 | 31859 ft | 341 kts | 279° |
| 2026-04-30 04:40 | 40.12847 | -105.14822 | 31409 ft | 341 kts | 280° |
| 2026-04-30 04:40 | 40.13382 | -105.17841 | 30964 ft | 341 kts | 280° |
| 2026-04-30 04:40 | 40.13849 | -105.20850 | 30518 ft | 338 kts | 273° |
| 2026-04-30 04:41 | 40.13800 | -105.23888 | 30030 ft | 336 kts | 265° |
| 2026-04-30 04:41 | 40.13636 | -105.26941 | 29609 ft | 335 kts | 265° |
| 2026-04-30 04:41 | 40.13483 | -105.29956 | 29172 ft | 335 kts | 265° |
| 2026-04-30 04:41 | 40.13335 | -105.32876 | 28748 ft | 335 kts | 266° |
| 2026-04-30 04:42 | 40.13182 | -105.35889 | 28322 ft | 334 kts | 265° |
| 2026-04-30 04:42 | 40.13026 | -105.38927 | 27868 ft | 333 kts | 266° |
| 2026-04-30 04:42 | 40.12872 | -105.41923 | 27432 ft | 332 kts | 265° |
| 2026-04-30 04:42 | 40.12718 | -105.44903 | 26998 ft | 330 kts | 265° |
| 2026-04-30 04:43 | 40.12562 | -105.47897 | 26555 ft | 330 kts | 265° |
| 2026-04-30 04:43 | 40.12406 | -105.50893 | 26104 ft | 328 kts | 265° |
| 2026-04-30 04:43 | 40.12252 | -105.53840 | 25658 ft | 327 kts | 265° |
| 2026-04-30 04:43 | 40.12097 | -105.56792 | 25235 ft | 326 kts | 265° |
| 2026-04-30 04:44 | 40.11941 | -105.59737 | 24826 ft | 325 kts | 265° |
| 2026-04-30 04:44 | 40.11785 | -105.62690 | 24377 ft | 324 kts | 265° |
| 2026-04-30 04:44 | 40.11637 | -105.65642 | 23932 ft | 323 kts | 265° |
| 2026-04-30 04:44 | 40.11494 | -105.68574 | 23524 ft | 320 kts | 265° |
| 2026-04-30 04:45 | 40.11353 | -105.71446 | 23099 ft | 320 kts | 265° |
| 2026-04-30 04:45 | 40.11210 | -105.74336 | 22688 ft | 318 kts | 265° |
| 2026-04-30 04:45 | 40.11067 | -105.77212 | 22265 ft | 318 kts | 265° |
| 2026-04-30 04:45 | 40.10923 | -105.80094 | 21882 ft | 315 kts | 265° |
| 2026-04-30 04:46 | 40.10780 | -105.82947 | 21460 ft | 315 kts | 265° |
| 2026-04-30 04:46 | 40.10637 | -105.85792 | 21056 ft | 313 kts | 265° |
| 2026-04-30 04:46 | 40.10495 | -105.88605 | 20645 ft | 312 kts | 265° |
| 2026-04-30 04:46 | 40.10351 | -105.91423 | 20242 ft | 311 kts | 265° |
| 2026-04-30 04:47 | 40.10206 | -105.94256 | 19826 ft | 309 kts | 265° |
| 2026-04-30 04:47 | 40.10064 | -105.97026 | 19419 ft | 308 kts | 265° |
| 2026-04-30 04:47 | 40.09920 | -105.99815 | 19003 ft | 306 kts | 265° |
| 2026-04-30 04:47 | 40.09775 | -106.02605 | 18595 ft | 305 kts | 265° |
| 2026-04-30 04:48 | 40.09633 | -106.05353 | 18177 ft | 304 kts | 265° |
| 2026-04-30 04:48 | 40.09488 | -106.08123 | 17776 ft | 302 kts | 265° |
| 2026-04-30 04:48 | 40.09345 | -106.10832 | 17380 ft | 302 kts | 265° |
| 2026-04-30 04:48 | 40.09199 | -106.13587 | 16865 ft | 304 kts | 265° |
| 2026-04-30 04:49 | 40.09055 | -106.16312 | 16396 ft | 302 kts | 265° |
| 2026-04-30 04:49 | 40.08793 | -106.19003 | 15963 ft | 299 kts | 254° |
| 2026-04-30 04:49 | 40.08067 | -106.21542 | 15739 ft | 293 kts | 249° |
| 2026-04-30 04:49 | 40.07307 | -106.24053 | 15632 ft | 301 kts | 249° |
| 2026-04-30 04:50 | 40.06549 | -106.26575 | 15423 ft | 301 kts | 249° |
| 2026-04-30 04:50 | 40.05779 | -106.29137 | 15246 ft | 301 kts | 249° |
| 2026-04-30 04:50 | 40.05011 | -106.31689 | 15044 ft | 300 kts | 249° |
| 2026-04-30 04:50 | 40.04239 | -106.34251 | 14860 ft | 300 kts | 249° |
| 2026-04-30 04:51 | 40.03476 | -106.36781 | 14677 ft | 300 kts | 249° |
| 2026-04-30 04:51 | 40.02710 | -106.39320 | 14482 ft | 300 kts | 249° |
| 2026-04-30 04:51 | 40.01946 | -106.41842 | 14289 ft | 300 kts | 248° |
| 2026-04-30 04:51 | 40.00855 | -106.44159 | 14106 ft | 300 kts | 229° |
| 2026-04-30 04:52 | 39.99349 | -106.46053 | 13902 ft | 299 kts | 224° |
| 2026-04-30 04:52 | 39.97846 | -106.47886 | 13718 ft | 293 kts | 224° |
| 2026-04-30 04:52 | 39.96369 | -106.49695 | 13536 ft | 287 kts | 224° |
| 2026-04-30 04:52 | 39.94923 | -106.51464 | 13356 ft | 281 kts | 224° |
| 2026-04-30 04:53 | 39.93495 | -106.53210 | 13178 ft | 276 kts | 224° |
| 2026-04-30 04:53 | 39.91986 | -106.54723 | 12997 ft | 276 kts | 214° |
| 2026-04-30 04:53 | 39.90359 | -106.56095 | 12821 ft | 275 kts | 214° |
| 2026-04-30 04:53 | 39.88753 | -106.57455 | 12643 ft | 275 kts | 214° |
| 2026-04-30 04:54 | 39.87157 | -106.58808 | 12464 ft | 273 kts | 214° |
| 2026-04-30 04:54 | 39.85560 | -106.60162 | 12296 ft | 273 kts | 214° |
| 2026-04-30 04:54 | 39.83952 | -106.61526 | 12113 ft | 273 kts | 214° |
| 2026-04-30 04:54 | 39.82279 | -106.62717 | 11928 ft | 274 kts | 205° |
| 2026-04-30 04:55 | 39.80528 | -106.63677 | 11606 ft | 276 kts | 204° |
| 2026-04-30 04:55 | 39.78772 | -106.64638 | 11347 ft | 272 kts | 204° |
| 2026-04-30 04:55 | 39.77017 | -106.65602 | 11072 ft | 272 kts | 203° |
| 2026-04-30 04:55 | 39.75252 | -106.66571 | 10801 ft | 272 kts | 203° |
| 2026-04-30 04:56 | 39.73519 | -106.67545 | 10537 ft | 271 kts | 207° |
| 2026-04-30 04:56 | 39.72044 | -106.69056 | 10260 ft | 269 kts | 232° |
| 2026-04-30 04:56 | 39.71033 | -106.71079 | 9993 ft | 268 kts | 240° |
| 2026-04-30 04:56 | 39.70077 | -106.73160 | 9776 ft | 265 kts | 239° |
| 2026-04-30 04:57 | 39.69143 | -106.75153 | 9763 ft | 250 kts | 239° |
| 2026-04-30 04:57 | 39.68265 | -106.77020 | 9764 ft | 234 kts | 239° |
| 2026-04-30 04:57 | 39.67895 | -106.77807 | 9762 ft | 228 kts | 239° |
| 2026-04-30 04:58 | 39.67177 | -106.79233 | 9592 ft | 226 kts | 232° |
| 2026-04-30 04:58 | 39.66093 | -106.80688 | 9244 ft | 216 kts | 221° |
| 2026-04-30 04:58 | 39.64899 | -106.81750 | 9088 ft | 198 kts | 203° |
| 2026-04-30 04:59 | 39.63653 | -106.82049 | 9101 ft | 169 kts | 173° |
| 2026-04-30 04:59 | 39.62678 | -106.81446 | 9222 ft | 150 kts | 126° |
| 2026-04-30 04:59 | 39.62557 | -106.80162 | 9244 ft | 151 kts | 60° |
| 2026-04-30 04:59 | 39.63446 | -106.79630 | 9219 ft | 153 kts | 352° |
| 2026-04-30 05:00 | 39.64385 | -106.80292 | 8798 ft | 158 kts | 319° |
| 2026-04-30 05:00 | 39.64994 | -106.81457 | 8284 ft | 156 kts | 291° |
| 2026-04-30 05:00 | 39.65142 | -106.82809 | 7902 ft | 147 kts | 267° |
| 2026-04-30 05:00 | 39.65040 | -106.84154 | 7695 ft | 151 kts | 263° |
| 2026-04-30 05:01 | 39.64902 | -106.85574 | 7445 ft | 162 kts | 264° |
| 2026-04-30 05:01 | 39.64774 | -106.86980 | 7164 ft | 155 kts | 263° |
| 2026-04-30 05:01 | 39.64618 | -106.88380 | 6925 ft | 153 kts | 261° |
| 2026-04-30 05:01 | 39.64475 | -106.89771 | 6672 ft | 150 kts | 261° |
| 2026-04-30 05:02 | 39.64335 | -106.91045 | 6566 ft | 126 kts | 261° |
| 2026-04-30 05:02 | 39.64230 | -106.92037 | 6564 ft | 87 kts | 261° |
| 2026-04-30 05:02 | 39.64167 | -106.92607 | 6564 ft | 42 kts | 261° |
| 2026-04-30 05:02 | 39.64129 | -106.92976 | 6564 ft | 26 kts | 267° |
| 2026-04-30 05:03 | 39.64087 | -106.93138 | 6564 ft | 9 kts | 217° |
| 2026-04-30 05:03 | 39.64011 | -106.93127 | 6564 ft | 13 kts | 134° |
| 2026-04-30 05:03 | 39.64014 | -106.92989 | 6564 ft | 17 kts | 79° |
| 2026-04-30 05:03 | 39.64035 | -106.92812 | 6564 ft | 21 kts | 82° |
| 2026-04-30 05:04 | 39.64053 | -106.92602 | 6564 ft | 24 kts | 84° |
| 2026-04-30 05:04 | 39.64078 | -106.92366 | 6564 ft | 27 kts | 83° |
| 2026-04-30 05:04 | 39.64109 | -106.92102 | 6564 ft | 30 kts | 80° |
| 2026-04-30 05:04 | 39.64141 | -106.91822 | 6564 ft | 32 kts | 83° |
| 2026-04-30 05:05 | 39.64169 | -106.91569 | 6564 ft | 25 kts | 81° |
| 2026-04-30 05:05 | 39.64194 | -106.91334 | 6564 ft | 26 kts | 84° |
| 2026-04-30 05:05 | 39.64220 | -106.91091 | 6564 ft | 25 kts | 82° |
| 2026-04-30 05:06 | 39.64197 | -106.90919 | 6564 ft | 7 kts | 164° |
| 2026-04-30 05:06 | 39.64178 | -106.90916 | 6564 ft | 0 kts | 184° |
| 2026-04-30 05:06 | 39.64177 | -106.90916 | 6564 ft | 1 kts | 183° |
| 2026-04-30 05:06 | 39.64157 | -106.90925 | 6564 ft | 2 kts | 233° |
| 2026-04-30 05:07 | 39.64152 | -106.90951 | 6564 ft | 4 kts | 263° |
| 2026-04-30 05:07 | 39.64151 | -106.90962 | 6564 ft | 1 kts | 263° |
| 2026-04-30 05:07 | 39.64151 | -106.90963 | 6564 ft | 0 kts | 263° |